Time;durP1;ratioP1;P1;durP2;ratioP2;P2;SDS_P1;SDS_P2;PMS_P1;PMS_P2;Temp;Humidity;BMP_temperature;BMP_pressure;BME280_temperature;BME280_humidity;BME280_pressure;Samples;Min_cycle;Max_cycle;Signal;HPM_P1;HPM_P2
2023/01/14 15:20:48;;;;;;;2.40;2.30;;;8.00;97.70;;;;;;5112803;27;20279;-85
2023/01/14 15:23:15;;;;;;;2.70;2.40;;;7.70;98.30;;;;;;5112388;28;20566;-86
2023/01/14 15:25:42;;;;;;;4.70;2.90;;;7.60;98.50;;;;;;5111595;28;20179;-86
2023/01/14 15:28:15;;;;;;;2.80;2.60;;;7.60;98.70;;;;;;5111927;28;20187;-86
2023/01/14 15:30:41;;;;;;;3.50;3.20;;;7.60;99.10;;;;;;5109477;28;20200;-89
2023/01/14 15:33:36;;;;;;;9.00;6.70;;;7.50;98.90;;;;;;5108141;28;20176;-88
2023/01/14 15:36:11;;;;;;;11.90;9.73;;;7.50;99.00;;;;;;5111263;28;21009;-91
2023/01/14 15:38:38;;;;;;;7.77;6.67;;;7.40;99.10;;;;;;5110653;28;20230;-89
2023/01/14 15:41:10;;;;;;;7.00;5.03;;;7.40;99.30;;;;;;5111573;28;20196;-90
2023/01/14 15:43:40;;;;;;;5.03;4.07;;;7.40;99.20;;;;;;5113396;28;20166;-87
2023/01/14 15:46:07;;;;;;;3.63;3.30;;;7.40;99.40;;;;;;5094082;28;20189;-89
2023/01/14 15:48:44;;;;;;;3.43;3.10;;;7.40;99.40;;;;;;5091548;28;20529;-88
2023/01/14 15:51:12;;;;;;;3.27;2.97;;;7.40;99.60;;;;;;5093028;28;20215;-88
2023/01/14 15:53:39;;;;;;;3.23;2.93;;;7.40;99.90;;;;;;5096016;28;20179;-84
2023/01/14 15:56:07;;;;;;;5.13;2.97;;;7.20;99.90;;;;;;5093000;28;20170;-87
2023/01/14 15:58:52;;;;;;;3.83;3.33;;;7.30;99.90;;;;;;5108138;28;20213;-89
2023/01/14 16:01:21;;;;;;;4.27;2.90;;;7.30;99.90;;;;;;5095171;28;20218;-84
2023/01/14 16:03:52;;;;;;;3.67;3.30;;;7.30;99.90;;;;;;5099903;28;20197;-85
2023/01/14 16:06:41;;;;;;;3.73;3.43;;;7.20;99.90;;;;;;5109280;28;20689;-84
2023/01/14 16:09:11;;;;;;;6.63;3.60;;;7.10;99.90;;;;;;5111031;28;20184;-83
2023/01/14 16:11:40;;;;;;;5.83;3.50;;;7.10;99.90;;;;;;5094263;28;20176;-87
2023/01/14 16:14:17;;;;;;;8.47;3.90;;;7.20;99.90;;;;;;5090760;28;20168;-83
2023/01/14 16:16:43;;;;;;;6.90;4.57;;;7.10;99.90;;;;;;5090962;28;20166;-85
2023/01/14 16:19:09;;;;;;;6.50;4.23;;;7.10;99.90;;;;;;5089904;28;20896;-84
2023/01/14 16:21:35;;;;;;;6.50;4.97;;;7.00;99.90;;;;;;5105391;28;20177;-83
2023/01/14 16:24:02;;;;;;;8.23;5.70;;;6.90;99.90;;;;;;5109866;28;20513;-83
2023/01/14 16:26:28;;;;;;;7.93;5.57;;;6.90;99.60;;;;;;5108425;28;20166;-85
2023/01/14 16:28:55;;;;;;;8.77;5.60;;;6.90;99.90;;;;;;5108023;28;20206;-81
2023/01/14 16:31:20;;;;;;;12.23;6.90;;;6.80;99.90;;;;;;5099250;28;20223;-85
2023/01/14 16:33:46;;;;;;;11.40;6.60;;;6.70;99.90;;;;;;5096276;28;20176;-82
2023/01/14 16:36:13;;;;;;;8.17;6.07;;;6.60;99.90;;;;;;5096680;28;20177;-86
2023/01/14 16:38:40;;;;;;;9.07;7.07;;;6.70;99.90;;;;;;5096452;28;20204;-86
2023/01/14 16:41:06;;;;;;;9.53;6.67;;;6.70;99.90;;;;;;5095548;28;20179;-87
2023/01/14 16:43:32;;;;;;;9.77;5.90;;;6.60;99.90;;;;;;5100011;28;20181;-84
2023/01/14 16:45:59;;;;;;;7.83;5.73;;;6.50;99.90;;;;;;5094336;28;20192;-85
2023/01/14 16:48:24;;;;;;;9.23;5.70;;;6.40;99.90;;;;;;5095989;28;20173;-86
2023/01/14 16:50:52;;;;;;;8.13;5.83;;;6.40;99.90;;;;;;5095520;28;20185;-86
2023/01/14 16:53:18;;;;;;;6.83;5.80;;;6.30;99.90;;;;;;5094057;28;20185;-83
2023/01/14 16:55:44;;;;;;;5.90;5.23;;;6.30;99.90;;;;;;5098624;28;20677;-87
2023/01/14 16:58:10;;;;;;;11.33;5.63;;;6.20;99.90;;;;;;5096227;28;20166;-88
2023/01/14 17:00:36;;;;;;;9.17;5.90;;;6.30;99.90;;;;;;5099895;28;20629;-87
2023/01/14 17:03:03;;;;;;;6.10;5.53;;;6.30;99.90;;;;;;5095277;28;20174;-86
2023/01/14 17:05:30;;;;;;;9.57;5.70;;;6.20;99.90;;;;;;5096007;28;20184;-84
2023/01/14 17:07:56;;;;;;;7.53;5.03;;;6.10;99.90;;;;;;5094259;28;20181;-85
2023/01/14 17:10:22;;;;;;;7.13;5.50;;;6.20;99.90;;;;;;5094034;28;20229;-84
2023/01/14 17:12:50;;;;;;;6.30;5.00;;;6.10;99.90;;;;;;5095210;28;20180;-84
2023/01/14 17:15:21;;;;;;;8.07;5.70;;;6.10;99.90;;;;;;5095175;28;20639;-83
2023/01/14 17:17:48;;;;;;;11.63;5.80;;;6.00;99.90;;;;;;5093688;28;20570;-84
2023/01/14 17:20:16;;;;;;;8.77;6.33;;;6.00;99.90;;;;;;5094735;28;20261;-84
2023/01/14 17:22:43;;;;;;;7.83;6.60;;;6.10;99.90;;;;;;5093515;28;20195;-82
2023/01/14 17:25:09;;;;;;;9.00;5.83;;;6.00;99.90;;;;;;5095483;28;20572;-83
2023/01/14 17:27:37;;;;;;;7.70;5.60;;;5.90;99.90;;;;;;5095161;28;20171;-84
2023/01/14 17:30:04;;;;;;;7.53;5.50;;;5.80;99.90;;;;;;5110695;28;20178;-84
2023/01/14 17:32:30;;;;;;;6.73;5.80;;;5.70;99.90;;;;;;5118451;28;20178;-85
2023/01/14 17:34:56;;;;;;;10.50;5.57;;;5.80;99.90;;;;;;5108212;28;20166;-84
2023/01/14 17:37:22;;;;;;;6.73;5.07;;;5.70;99.90;;;;;;5096166;28;20185;-85
2023/01/14 17:39:48;;;;;;;9.77;5.30;;;5.60;99.90;;;;;;5096884;28;20214;-84
2023/01/14 17:42:15;;;;;;;8.10;4.63;;;5.50;99.90;;;;;;5096720;28;20177;-87
2023/01/14 17:44:45;;;;;;;6.53;4.93;;;5.60;99.90;;;;;;5094056;28;20191;-83
2023/01/14 17:47:20;;;;;;;15.60;10.67;;;5.50;99.90;;;;;;5093754;28;20176;-87
2023/01/14 17:49:46;;;;;;;7.47;5.20;;;5.40;99.90;;;;;;5093934;28;20266;-85
2023/01/14 17:52:12;;;;;;;9.93;5.77;;;5.50;99.90;;;;;;5093824;28;20576;-83
2023/01/14 17:54:39;;;;;;;9.00;5.33;;;5.40;99.90;;;;;;5092798;28;20185;-84
2023/01/14 17:57:05;;;;;;;7.10;5.30;;;5.30;99.90;;;;;;5094366;28;20503;-84
2023/01/14 17:59:32;;;;;;;8.97;5.63;;;5.20;99.90;;;;;;5094214;28;20223;-86
2023/01/14 18:01:58;;;;;;;7.87;5.50;;;5.20;99.90;;;;;;5093790;28;20164;-84
2023/01/14 18:04:24;;;;;;;8.20;6.20;;;5.20;99.90;;;;;;5094451;28;20257;-84
2023/01/14 18:06:51;;;;;;;5.43;4.67;;;5.20;99.90;;;;;;5093855;28;20170;-86
2023/01/14 18:09:17;;;;;;;9.53;5.13;;;5.20;99.90;;;;;;5095205;28;20230;-84
2023/01/14 18:11:44;;;;;;;7.93;5.37;;;5.10;99.90;;;;;;5095164;28;20207;-83
2023/01/14 18:14:10;;;;;;;9.90;5.70;;;5.20;99.90;;;;;;5101696;28;20224;-84
2023/01/14 18:16:36;;;;;;;6.13;5.03;;;5.10;99.90;;;;;;5111447;28;20179;-85
2023/01/14 18:19:03;;;;;;;6.20;5.53;;;5.10;99.90;;;;;;5096525;28;20236;-89
2023/01/14 18:21:29;;;;;;;11.37;6.17;;;4.90;99.90;;;;;;5095690;28;20179;-89
2023/01/14 18:23:54;;;;;;;5.77;5.13;;;4.90;99.90;;;;;;5095081;28;20162;-88
2023/01/14 18:26:21;;;;;;;8.07;5.00;;;4.90;99.90;;;;;;5094501;28;20170;-87
2023/01/14 18:28:53;;;;;;;7.20;5.87;;;4.90;99.90;;;;;;5094809;28;20178;-87
2023/01/14 18:31:20;;;;;;;6.37;4.80;;;4.80;99.90;;;;;;5093305;28;20184;-87
2023/01/14 18:33:48;;;;;;;6.17;5.03;;;4.70;99.90;;;;;;5091985;28;20178;-88
2023/01/14 18:36:14;;;;;;;8.20;5.50;;;4.70;99.90;;;;;;5092658;28;20209;-86
2023/01/14 18:38:41;;;;;;;7.67;5.33;;;4.70;99.90;;;;;;5092011;28;20217;-85
2023/01/14 18:41:15;;;;;;;6.87;4.90;;;4.50;99.90;;;;;;5093992;28;20628;-88
2023/01/14 18:43:42;;;;;;;6.30;5.27;;;4.50;99.90;;;;;;5094148;28;20254;-86
2023/01/14 18:46:19;;;;;;;10.40;5.63;;;4.50;99.90;;;;;;5076853;28;20537;-86
2023/01/14 18:48:46;;;;;;;7.00;5.73;;;4.50;99.90;;;;;;5094840;28;20167;-89
2023/01/14 18:51:14;;;;;;;9.67;5.33;;;4.40;99.90;;;;;;5093976;28;20193;-88
2023/01/14 18:53:41;;;;;;;7.53;5.23;;;4.40;99.90;;;;;;5093968;28;20179;-87
2023/01/14 18:56:13;;;;;;;5.90;5.30;;;4.40;99.90;;;;;;5092645;28;20167;-88
2023/01/14 18:58:40;;;;;;;8.57;6.60;;;4.50;99.90;;;;;;5099734;28;20197;-86
2023/01/14 19:01:10;;;;;;;10.10;5.47;;;4.40;99.90;;;;;;5093790;28;20534;-85
2023/01/14 19:03:36;;;;;;;6.87;5.17;;;4.50;99.90;;;;;;5090193;28;20202;-82
2023/01/14 19:06:03;;;;;;;5.90;4.50;;;4.60;99.90;;;;;;5092968;28;20167;-85
2023/01/14 19:08:28;;;;;;;5.60;4.97;;;4.50;99.90;;;;;;5093279;28;20175;-83
2023/01/14 19:10:56;;;;;;;4.23;3.83;;;4.50;99.90;;;;;;5091556;28;20193;-84
2023/01/14 19:13:22;;;;;;;5.73;4.90;;;4.50;99.90;;;;;;5093017;28;20253;-86
2023/01/14 19:15:48;;;;;;;5.43;4.90;;;4.60;99.90;;;;;;5093103;28;20658;-86
2023/01/14 19:18:16;;;;;;;9.27;5.07;;;4.60;99.90;;;;;;5093566;28;20194;-86
2023/01/14 19:20:42;;;;;;;7.87;5.60;;;4.60;99.90;;;;;;5094997;28;20209;-82
2023/01/14 19:23:09;;;;;;;7.97;5.63;;;4.50;99.90;;;;;;5093563;28;20201;-83
2023/01/14 19:25:42;;;;;;;7.93;5.33;;;4.50;99.90;;;;;;5092850;28;20185;-83
2023/01/14 19:28:09;;;;;;;7.37;5.73;;;4.50;99.90;;;;;;5092004;28;20167;-85
2023/01/14 19:30:36;;;;;;;7.67;5.57;;;4.40;99.90;;;;;;5092779;28;20207;-85
2023/01/14 19:33:01;;;;;;;6.53;5.33;;;4.40;99.90;;;;;;5093475;28;20189;-84
2023/01/14 19:35:27;;;;;;;5.77;4.67;;;4.40;99.90;;;;;;5093213;28;20704;-84
2023/01/14 19:37:53;;;;;;;7.27;4.50;;;4.40;99.90;;;;;;5091931;28;20174;-84
2023/01/14 19:40:19;;;;;;;5.87;4.60;;;4.40;99.90;;;;;;5093140;28;20212;-84
2023/01/14 19:42:45;;;;;;;6.23;5.00;;;4.40;99.90;;;;;;5092914;28;20274;-87
2023/01/14 19:45:11;;;;;;;5.30;4.57;;;4.50;99.90;;;;;;5092103;28;20665;-85
2023/01/14 19:47:36;;;;;;;6.67;4.50;;;4.50;99.90;;;;;;5092668;28;20679;-85
2023/01/14 19:50:03;;;;;;;7.73;5.10;;;4.60;99.90;;;;;;5093620;28;20171;-83
2023/01/14 19:52:29;;;;;;;4.67;4.00;;;4.50;99.90;;;;;;5092050;28;20584;-83
2023/01/14 19:54:55;;;;;;;5.03;4.30;;;4.60;99.90;;;;;;5094740;28;20171;-86
2023/01/14 19:57:23;;;;;;;5.63;4.70;;;4.60;99.90;;;;;;5090485;28;20193;-83
2023/01/14 19:59:50;;;;;;;6.20;4.37;;;4.60;99.90;;;;;;5087021;28;20222;-83
2023/01/14 20:02:16;;;;;;;6.60;4.73;;;4.50;99.90;;;;;;5092126;28;20190;-83
2023/01/14 20:04:43;;;;;;;7.50;4.90;;;4.60;99.90;;;;;;5096850;28;20183;-86
2023/01/14 20:07:09;;;;;;;7.17;5.17;;;4.50;99.90;;;;;;5098496;28;20177;-83
2023/01/14 20:09:34;;;;;;;6.97;4.87;;;4.40;99.90;;;;;;5095433;28;20179;-85
2023/01/14 20:12:07;;;;;;;6.30;4.57;;;4.40;99.90;;;;;;5094594;28;20349;-84
2023/01/14 23:03:08;;;;;;;6.27;4.90;;;4.20;99.90;;;;;;5130935;27;20494;-81
2023/01/14 23:05:34;;;;;;;7.00;5.30;;;4.20;99.90;;;;;;5112831;28;20640;-82
2023/01/14 23:07:59;;;;;;;5.77;5.17;;;4.10;99.90;;;;;;5112984;28;20261;-85
2023/01/14 23:10:26;;;;;;;7.77;5.57;;;4.10;99.90;;;;;;5122425;28;20272;-82
2023/01/14 23:12:51;;;;;;;7.27;5.50;;;4.10;99.90;;;;;;5127064;28;20181;-82
2023/01/14 23:17:25;;;;;;;9.13;5.07;;;4.00;99.90;;;;;;5116124;28;20180;-85
2023/01/14 23:18:04;;;;;;;6.67;5.23;;;4.00;99.90;;;;;;5137429;28;20180;-84
2023/01/14 23:25:59;;;;;;;4.53;4.13;;;4.10;99.90;;;;;;5132069;28;20211;-85
2023/01/14 23:28:24;;;;;;;7.10;4.83;;;4.00;99.90;;;;;;5130886;28;20539;-84
2023/01/14 23:30:50;;;;;;;5.27;4.40;;;4.00;99.90;;;;;;5130358;28;20637;-83
2023/01/14 23:33:16;;;;;;;5.03;4.53;;;4.10;99.90;;;;;;5108835;28;20181;-83
2023/01/14 23:35:41;;;;;;;5.53;4.30;;;4.10;99.90;;;;;;5124714;28;20175;-83
2023/01/14 23:38:07;;;;;;;5.30;4.60;;;4.10;99.90;;;;;;5110666;28;20240;-84
2023/01/14 23:40:33;;;;;;;5.50;4.17;;;4.10;99.90;;;;;;5130579;28;20242;-84
2023/01/14 23:42:59;;;;;;;7.30;4.60;;;4.20;99.90;;;;;;5130571;28;20256;-87
2023/01/14 23:45:24;;;;;;;4.70;4.17;;;4.30;99.90;;;;;;5131026;28;20209;-87
2023/01/14 23:47:50;;;;;;;5.37;4.10;;;4.30;99.90;;;;;;5131029;28;20170;-88
2023/01/14 23:50:16;;;;;;;4.30;3.90;;;4.20;99.90;;;;;;5112333;28;20183;-84
2023/01/14 23:52:42;;;;;;;5.27;4.33;;;4.30;99.90;;;;;;5130513;28;20537;-85
2023/01/14 23:55:08;;;;;;;4.90;4.17;;;4.30;99.90;;;;;;5131221;28;20658;-84
2023/01/14 23:57:33;;;;;;;6.37;4.17;;;4.30;99.90;;;;;;5112378;28;20220;-86
2023/01/14 23:59:59;;;;;;;6.03;4.00;;;4.20;99.90;;;;;;5130155;28;20570;-86
